Time;durP1;ratioP1;P1;durP2;ratioP2;P2;SDS_P1;SDS_P2;PMS_P1;PMS_P2;Temp;Humidity;BMP_temperature;BMP_pressure;BME280_temperature;BME280_humidity;BME280_pressure;Samples;Min_cycle;Max_cycle;Signal;HPM_P1;HPM_P2
2023/08/15 00:02:12;;;;;;;3.08;2.80;;;23.30;99.90;;;;;;5069927;28;20564;-67
2023/08/15 00:04:39;;;;;;;2.75;2.55;;;23.30;99.90;;;;;;5069216;28;20235;-67
2023/08/15 00:07:09;;;;;;;2.80;2.53;;;23.30;99.90;;;;;;5053159;28;20243;-67
2023/08/15 00:09:36;;;;;;;3.78;3.20;;;23.30;99.90;;;;;;5071381;28;20193;-67
2023/08/15 00:12:05;;;;;;;4.97;3.15;;;23.30;99.90;;;;;;5053695;28;20680;-67
2023/08/15 00:14:33;;;;;;;5.28;3.75;;;23.30;99.90;;;;;;5052104;28;20197;-67
2023/08/15 00:17:00;;;;;;;3.17;2.80;;;23.30;99.90;;;;;;5070966;28;20318;-67
2023/08/15 00:19:27;;;;;;;3.65;3.15;;;23.30;99.90;;;;;;5070037;28;20192;-67
2023/08/15 00:21:54;;;;;;;5.65;4.00;;;23.30;99.90;;;;;;5071102;28;20205;-67
2023/08/15 00:24:21;;;;;;;4.45;3.90;;;23.30;99.90;;;;;;5070401;28;20185;-67
2023/08/15 00:26:48;;;;;;;4.13;3.55;;;23.20;99.90;;;;;;5064127;28;20189;-68
2023/08/15 00:29:16;;;;;;;4.43;3.67;;;23.20;99.90;;;;;;5070557;28;20534;-68
2023/08/15 00:31:45;;;;;;;7.35;4.47;;;23.20;99.90;;;;;;5064218;28;20197;-67
2023/08/15 00:34:12;;;;;;;6.03;3.65;;;23.20;99.90;;;;;;5069381;28;20220;-67
2023/08/15 00:36:39;;;;;;;5.72;3.70;;;23.20;99.90;;;;;;5051174;28;20205;-67
2023/08/15 00:39:08;;;;;;;2.95;2.72;;;23.20;99.90;;;;;;5049459;28;20592;-68
2023/08/15 00:41:35;;;;;;;3.72;3.25;;;23.20;99.90;;;;;;5063573;28;20239;-68
2023/08/15 00:44:03;;;;;;;4.10;3.45;;;23.10;99.90;;;;;;5070717;28;20270;-67
2023/08/15 00:46:32;;;;;;;4.45;4.05;;;23.10;99.90;;;;;;5070514;28;20272;-67
2023/08/15 00:49:01;;;;;;;8.60;4.63;;;23.10;99.90;;;;;;5050143;28;20201;-67
2023/08/15 00:51:30;;;;;;;4.32;3.90;;;23.10;99.90;;;;;;5063424;28;20224;-67
2023/08/15 00:54:00;;;;;;;5.65;4.38;;;23.10;99.90;;;;;;5070490;28;20755;-68
2023/08/15 00:56:28;;;;;;;5.38;4.88;;;23.00;99.90;;;;;;5070074;28;20197;-67
2023/08/15 00:58:55;;;;;;;5.50;4.30;;;23.00;99.90;;;;;;5070726;28;20193;-67
2023/08/15 01:01:24;;;;;;;5.47;3.78;;;23.00;99.90;;;;;;5066756;28;20237;-67
2023/08/15 01:03:54;;;;;;;4.65;4.18;;;23.00;99.90;;;;;;5047262;28;20229;-67
2023/08/15 01:06:21;;;;;;;5.63;3.97;;;23.10;99.90;;;;;;5050869;28;20676;-68
2023/08/15 01:08:48;;;;;;;4.35;3.95;;;23.10;99.90;;;;;;5052992;28;20235;-67
2023/08/15 01:11:17;;;;;;;4.53;4.13;;;23.00;99.90;;;;;;5052778;28;20656;-66
2023/08/15 01:13:49;;;;;;;5.60;4.28;;;22.90;99.90;;;;;;5069392;28;20205;-67
2023/08/15 01:16:24;;;;;;;4.15;3.80;;;22.90;99.90;;;;;;5069318;28;20281;-67
2023/08/15 01:18:58;;;;;;;5.60;3.65;;;22.90;99.90;;;;;;5052035;28;20208;-66
2023/08/15 01:21:33;;;;;;;3.85;3.22;;;22.90;99.90;;;;;;5069218;28;20211;-67
2023/08/15 01:24:03;;;;;;;4.68;3.05;;;22.80;99.90;;;;;;5052481;28;20246;-67
2023/08/15 01:26:30;;;;;;;3.33;3.03;;;22.80;99.90;;;;;;5070528;28;20185;-67
2023/08/15 01:28:57;;;;;;;3.20;2.85;;;22.80;99.90;;;;;;5070573;28;20556;-67
2023/08/15 01:31:33;;;;;;;3.60;2.42;;;22.80;99.90;;;;;;5051544;28;20205;-67
2023/08/15 01:34:07;;;;;;;2.60;2.40;;;22.80;99.90;;;;;;5051551;28;20220;-65
2023/08/15 01:36:39;;;;;;;2.58;2.47;;;22.80;99.90;;;;;;5066474;28;20304;-67
2023/08/15 01:39:08;;;;;;;2.50;2.30;;;22.80;99.90;;;;;;5049848;28;20197;-66
2023/08/15 01:41:39;;;;;;;2.95;2.33;;;22.80;99.90;;;;;;5069864;28;20193;-67
2023/08/15 01:44:09;;;;;;;2.30;2.20;;;22.80;99.90;;;;;;5069883;28;20189;-67
2023/08/15 01:46:37;;;;;;;2.67;2.47;;;22.70;99.90;;;;;;5051420;28;20205;-66
2023/08/15 01:49:07;;;;;;;2.70;2.50;;;22.80;99.90;;;;;;5051026;28;20200;-67
2023/08/15 01:51:34;;;;;;;2.88;2.55;;;22.80;99.90;;;;;;5069387;28;20204;-67
2023/08/15 01:54:01;;;;;;;2.38;2.28;;;22.80;99.90;;;;;;5070615;28;20281;-66
2023/08/15 01:56:30;;;;;;;2.63;2.42;;;22.80;99.90;;;;;;5052910;28;20216;-67
2023/08/15 01:58:57;;;;;;;2.85;2.50;;;22.70;99.90;;;;;;5042166;28;20189;-66
2023/08/15 02:01:24;;;;;;;3.15;2.72;;;22.70;99.90;;;;;;5072996;28;20283;-66
2023/08/15 02:03:51;;;;;;;2.97;2.67;;;22.70;99.90;;;;;;5069549;28;20221;-67
2023/08/15 02:06:18;;;;;;;3.13;2.75;;;22.70;99.90;;;;;;5069278;28;20201;-67
2023/08/15 02:08:48;;;;;;;2.78;2.55;;;22.70;99.90;;;;;;5052112;28;20244;-67
2023/08/15 02:11:15;;;;;;;2.60;2.40;;;22.70;99.90;;;;;;5070075;28;20291;-67
2023/08/15 02:13:43;;;;;;;4.05;2.47;;;22.60;99.90;;;;;;5070117;28;20209;-67
2023/08/15 02:16:10;;;;;;;2.40;2.20;;;22.60;99.90;;;;;;5070894;28;20189;-67
2023/08/15 02:18:39;;;;;;;2.08;1.98;;;22.60;99.90;;;;;;5046542;28;20203;-67
2023/08/15 02:21:06;;;;;;;3.50;2.47;;;22.50;99.90;;;;;;5069177;28;20718;-67
2023/08/15 02:23:33;;;;;;;3.20;2.35;;;22.50;99.90;;;;;;5052083;28;20217;-67
2023/08/15 02:26:00;;;;;;;2.75;2.53;;;22.60;99.90;;;;;;5051511;28;20564;-67
2023/08/15 02:28:27;;;;;;;3.60;2.75;;;22.60;99.90;;;;;;5073483;28;20201;-67
2023/08/15 02:30:56;;;;;;;3.05;2.70;;;22.60;99.90;;;;;;5073611;28;20201;-67
2023/08/15 02:33:23;;;;;;;4.20;2.20;;;22.60;99.90;;;;;;5073795;28;20208;-67
2023/08/15 02:35:53;;;;;;;2.50;2.30;;;22.60;99.90;;;;;;5072036;28;20204;-67
2023/08/15 02:38:20;;;;;;;2.22;1.70;;;22.60;99.90;;;;;;5055723;28;20220;-67
2023/08/15 02:40:48;;;;;;;2.92;1.90;;;22.60;99.90;;;;;;5073051;28;20743;-67
2023/08/15 02:43:15;;;;;;;2.60;1.80;;;22.60;99.90;;;;;;5073817;28;20189;-67
2023/08/15 02:45:42;;;;;;;3.10;1.98;;;22.70;99.90;;;;;;5073440;28;20204;-67
2023/08/15 02:48:12;;;;;;;2.40;2.20;;;22.70;99.90;;;;;;5054521;28;20679;-67
2023/08/15 02:50:43;;;;;;;2.10;1.90;;;22.80;99.90;;;;;;5064622;28;20189;-68
2023/08/15 02:53:10;;;;;;;1.95;1.85;;;22.80;99.90;;;;;;5054687;28;20288;-67
2023/08/15 02:55:37;;;;;;;1.85;1.75;;;22.80;99.90;;;;;;5072108;28;20204;-67
2023/08/15 02:58:05;;;;;;;2.00;1.90;;;22.80;99.90;;;;;;5055513;28;20255;-68
2023/08/15 03:00:32;;;;;;;2.22;2.05;;;22.90;99.90;;;;;;5054838;28;20221;-67
2023/08/15 03:02:59;;;;;;;4.05;2.30;;;22.80;99.90;;;;;;5051428;28;20201;-67
2023/08/15 03:05:27;;;;;;;3.20;2.10;;;22.80;99.90;;;;;;5054845;28;20652;-67
2023/08/15 03:07:55;;;;;;;3.78;2.28;;;22.80;99.90;;;;;;5072550;28;20201;-67
2023/08/15 03:10:22;;;;;;;4.65;3.50;;;22.70;99.90;;;;;;5055124;28;20201;-67
2023/08/15 03:12:49;;;;;;;4.20;3.20;;;22.70;99.90;;;;;;5073633;28;20221;-66
2023/08/15 03:15:16;;;;;;;3.35;3.05;;;22.70;99.90;;;;;;5072067;28;20675;-66
2023/08/15 03:17:43;;;;;;;3.67;2.67;;;22.70;99.90;;;;;;5070747;28;20656;-66
2023/08/15 03:20:11;;;;;;;2.67;2.47;;;22.70;99.90;;;;;;5072531;28;20189;-67
2023/08/15 03:22:43;;;;;;;3.25;2.67;;;22.70;99.90;;;;;;5053860;28;20217;-67
2023/08/15 03:25:10;;;;;;;3.58;2.50;;;22.60;99.90;;;;;;5054582;28;20281;-67
2023/08/15 03:27:37;;;;;;;3.53;2.95;;;22.60;99.90;;;;;;5054122;28;20232;-67
2023/08/15 03:30:05;;;;;;;2.75;2.55;;;22.50;99.90;;;;;;5054315;28;20228;-67
2023/08/15 03:32:33;;;;;;;2.42;2.22;;;22.50;99.90;;;;;;5070833;28;20530;-67
2023/08/15 03:35:02;;;;;;;2.55;2.35;;;22.50;99.90;;;;;;5053801;28;20318;-67
2023/08/15 03:37:30;;;;;;;4.43;3.20;;;22.50;99.90;;;;;;5069355;28;20189;-67
2023/08/15 03:40:03;;;;;;;4.95;2.97;;;22.50;99.90;;;;;;5054394;28;20687;-67
2023/08/15 03:42:30;;;;;;;4.13;2.90;;;22.50;99.90;;;;;;5053724;28;20232;-67
2023/08/15 03:44:57;;;;;;;3.90;2.95;;;22.50;99.90;;;;;;5072183;28;20248;-67
2023/08/15 03:47:24;;;;;;;3.38;2.90;;;22.50;99.90;;;;;;5051924;28;20201;-67
2023/08/15 03:49:52;;;;;;;3.30;2.50;;;22.40;99.90;;;;;;5050625;28;20210;-67
2023/08/15 03:52:19;;;;;;;2.83;2.63;;;22.40;99.90;;;;;;5053548;28;20295;-66
2023/08/15 03:54:46;;;;;;;2.10;2.00;;;22.30;99.90;;;;;;5053782;28;20668;-66
2023/08/15 03:57:14;;;;;;;2.63;2.42;;;22.30;99.90;;;;;;5053644;28;20301;-67
2023/08/15 03:59:41;;;;;;;2.55;2.28;;;22.30;99.90;;;;;;5054329;28;20255;-66
2023/08/15 04:02:09;;;;;;;3.20;2.75;;;22.20;99.90;;;;;;5052504;28;20301;-67
2023/08/15 04:04:36;;;;;;;3.17;2.70;;;22.20;99.90;;;;;;5071168;28;20236;-67
2023/08/15 04:07:03;;;;;;;4.10;2.80;;;22.30;99.90;;;;;;5071580;28;20200;-67
2023/08/15 04:09:30;;;;;;;3.35;2.53;;;22.30;99.90;;;;;;5053606;28;20189;-67
2023/08/15 04:11:57;;;;;;;2.65;2.30;;;22.30;99.90;;;;;;5053828;28;20205;-67
2023/08/15 04:14:27;;;;;;;2.72;2.30;;;22.20;99.90;;;;;;5071298;28;20216;-68
2023/08/15 04:16:54;;;;;;;3.90;2.50;;;22.20;99.90;;;;;;5051927;28;20289;-67
2023/08/15 04:19:21;;;;;;;2.97;2.25;;;22.20;99.90;;;;;;5070458;28;20284;-67
2023/08/15 04:21:48;;;;;;;3.33;2.72;;;22.10;99.90;;;;;;5052946;28;20292;-67
2023/08/15 04:24:15;;;;;;;2.38;2.28;;;22.10;99.90;;;;;;5071111;28;20197;-67
2023/08/15 04:26:43;;;;;;;2.53;2.33;;;22.10;99.90;;;;;;5053617;28;20197;-67
2023/08/15 04:29:11;;;;;;;3.58;2.80;;;22.10;99.90;;;;;;5053718;28;20216;-68
2023/08/15 04:31:41;;;;;;;2.28;2.08;;;22.10;99.90;;;;;;5052931;28;20209;-67
2023/08/15 04:34:08;;;;;;;3.15;2.00;;;22.10;99.90;;;;;;5069515;28;20205;-66
2023/08/15 04:36:36;;;;;;;2.40;2.20;;;22.10;99.90;;;;;;5051942;28;20567;-67
2023/08/15 04:39:04;;;;;;;3.63;1.92;;;22.10;99.90;;;;;;5050053;28;20229;-67
2023/08/15 04:41:31;;;;;;;2.65;2.42;;;22.10;99.90;;;;;;5052262;28;20212;-68
2023/08/15 04:43:58;;;;;;;2.65;2.45;;;22.20;99.90;;;;;;5053120;28;20225;-67
2023/08/15 04:46:26;;;;;;;2.28;2.17;;;22.30;99.90;;;;;;5070131;28;20247;-67
2023/08/15 04:48:55;;;;;;;3.03;2.75;;;22.30;99.90;;;;;;5051898;28;20556;-66
2023/08/15 04:51:22;;;;;;;4.00;2.83;;;22.40;99.90;;;;;;5059780;28;20295;-67
2023/08/15 04:53:50;;;;;;;2.20;2.10;;;22.40;99.90;;;;;;5052145;28;20491;-67
2023/08/15 04:56:18;;;;;;;2.70;2.40;;;22.50;99.90;;;;;;5052668;28;20291;-68
2023/08/15 04:58:45;;;;;;;2.20;2.10;;;22.60;99.90;;;;;;5071051;28;20296;-67
2023/08/15 05:01:13;;;;;;;2.13;2.03;;;22.60;99.90;;;;;;5051357;28;20205;-67
2023/08/15 05:03:43;;;;;;;2.33;2.20;;;22.70;99.90;;;;;;5047571;28;20238;-68
2023/08/15 05:06:12;;;;;;;2.30;2.08;;;22.70;99.90;;;;;;5048532;28;20209;-67
2023/08/15 05:08:39;;;;;;;2.35;2.15;;;22.70;99.90;;;;;;5049363;28;20228;-67
2023/08/15 05:11:07;;;;;;;1.83;1.73;;;22.80;99.90;;;;;;5049025;28;20695;-67
2023/08/15 05:13:34;;;;;;;2.35;2.25;;;22.80;99.90;;;;;;5050651;28;20186;-67
2023/08/15 05:16:01;;;;;;;1.98;1.88;;;22.90;99.90;;;;;;5048323;28;20228;-66
2023/08/15 05:18:29;;;;;;;2.22;2.03;;;22.90;99.90;;;;;;5048580;28;20201;-67
2023/08/15 05:20:56;;;;;;;4.35;2.22;;;23.00;99.90;;;;;;5049556;28;20205;-67
2023/08/15 05:23:25;;;;;;;2.35;2.15;;;23.10;99.90;;;;;;5049296;28;20197;-67
2023/08/15 05:25:52;;;;;;;1.80;1.70;;;23.10;99.90;;;;;;5049903;28;20194;-67
2023/08/15 05:28:20;;;;;;;1.92;1.83;;;23.20;99.90;;;;;;5049380;28;20205;-67
2023/08/15 05:30:48;;;;;;;1.80;1.70;;;23.20;99.90;;;;;;5048918;28;20194;-67
2023/08/15 05:33:15;;;;;;;2.45;2.17;;;23.30;99.90;;;;;;5047378;28;20201;-67
2023/08/15 05:35:43;;;;;;;2.03;1.92;;;23.30;99.90;;;;;;5048425;28;20283;-67
2023/08/15 05:38:11;;;;;;;3.08;2.60;;;23.40;99.90;;;;;;5050088;28;20193;-67
2023/08/15 05:40:40;;;;;;;2.80;2.60;;;23.40;99.90;;;;;;5048642;28;20267;-67
2023/08/15 05:43:07;;;;;;;3.22;2.85;;;23.40;99.90;;;;;;5048849;28;20190;-67
2023/08/15 05:45:34;;;;;;;3.05;2.85;;;23.50;99.90;;;;;;5050246;28;20190;-67
2023/08/15 05:48:03;;;;;;;3.25;2.88;;;23.60;99.90;;;;;;5047617;28;20284;-67
2023/08/15 05:50:30;;;;;;;5.75;3.10;;;23.60;99.90;;;;;;5046377;28;20596;-68
2023/08/15 05:52:57;;;;;;;3.40;3.10;;;23.60;99.90;;;;;;5048199;28;20581;-67
2023/08/15 05:55:24;;;;;;;3.72;3.00;;;23.70;99.90;;;;;;5048444;28;20703;-67
2023/08/15 05:57:53;;;;;;;5.38;3.17;;;23.70;99.90;;;;;;5050077;28;20268;-68
2023/08/15 06:00:22;;;;;;;3.58;3.28;;;23.80;99.90;;;;;;5048408;28;20381;-67
2023/08/15 06:02:49;;;;;;;4.22;3.22;;;23.80;99.90;;;;;;5051963;28;20247;-68
2023/08/15 06:05:17;;;;;;;2.70;2.50;;;23.80;99.90;;;;;;5053111;28;20245;-67
2023/08/15 06:07:44;;;;;;;2.50;2.40;;;23.90;99.90;;;;;;5052687;28;20194;-68
2023/08/15 06:10:11;;;;;;;3.28;2.97;;;24.00;99.90;;;;;;5054718;28;20692;-66
2023/08/15 06:12:38;;;;;;;3.80;3.03;;;24.00;99.90;;;;;;5053742;28;20198;-67
2023/08/15 06:15:07;;;;;;;3.58;3.10;;;24.00;99.90;;;;;;5053881;28;20210;-66
2023/08/15 06:17:34;;;;;;;6.00;3.75;;;24.00;99.90;;;;;;5052935;28;20264;-66
2023/08/15 06:20:03;;;;;;;3.50;2.60;;;24.00;99.90;;;;;;5053306;28;20297;-67
2023/08/15 06:22:30;;;;;;;3.10;2.90;;;24.10;99.90;;;;;;5051844;28;20573;-67
2023/08/15 06:24:57;;;;;;;3.05;2.85;;;24.10;99.90;;;;;;5053104;28;20194;-67
2023/08/15 06:27:24;;;;;;;3.03;2.83;;;24.20;99.90;;;;;;5053817;28;20285;-67
2023/08/15 06:29:51;;;;;;;3.75;2.88;;;24.20;99.90;;;;;;5053294;28;20197;-68
2023/08/15 06:32:29;;;;;;;4.95;3.50;;;24.30;99.90;;;;;;5050683;28;20620;-68
2023/08/15 06:34:57;;;;;;;3.45;3.15;;;24.30;99.90;;;;;;5051801;28;20260;-67
2023/08/15 06:37:24;;;;;;;3.40;3.10;;;24.30;99.90;;;;;;5052789;28;20190;-67
2023/08/15 06:39:51;;;;;;;3.72;3.42;;;24.30;99.90;;;;;;5047867;28;20198;-66
2023/08/15 06:42:18;;;;;;;3.88;3.13;;;24.30;99.90;;;;;;5050677;28;20213;-67
2023/08/15 06:44:45;;;;;;;4.05;2.58;;;24.30;99.90;;;;;;5052875;28;20198;-66
2023/08/15 06:47:12;;;;;;;3.90;3.50;;;24.40;99.90;;;;;;5050676;28;20240;-66
2023/08/15 06:49:41;;;;;;;4.30;3.20;;;24.50;99.90;;;;;;5047065;28;20214;-66
2023/08/15 06:52:08;;;;;;;3.58;3.28;;;24.50;99.90;;;;;;5052151;28;20229;-66
2023/08/15 06:54:36;;;;;;;2.90;2.67;;;24.60;99.90;;;;;;5053830;28;20619;-67
2023/08/15 06:57:03;;;;;;;3.65;3.30;;;24.70;99.90;;;;;;5052740;28;20197;-66
2023/08/15 06:59:35;;;;;;;4.30;3.90;;;24.70;99.90;;;;;;5052075;28;20231;-67
2023/08/15 07:02:02;;;;;;;3.90;3.60;;;24.80;99.90;;;;;;5049723;28;20202;-68
2023/08/15 07:04:29;;;;;;;4.25;3.85;;;24.90;99.90;;;;;;5064830;28;20217;-67
2023/08/15 07:06:58;;;;;;;4.47;4.05;;;25.00;99.90;;;;;;5054192;28;20266;-68
2023/08/15 07:09:28;;;;;;;8.15;3.72;;;25.00;99.90;;;;;;5055606;28;20271;-68
2023/08/15 07:11:55;;;;;;;3.70;3.50;;;25.10;99.90;;;;;;5073052;28;20197;-68
2023/08/15 07:14:22;;;;;;;4.88;4.07;;;25.20;99.90;;;;;;5072284;28;20195;-68
2023/08/15 07:16:49;;;;;;;5.35;4.13;;;25.20;99.90;;;;;;5072022;28;20284;-68
2023/08/15 07:19:17;;;;;;;7.13;3.75;;;25.30;99.90;;;;;;5053419;28;20226;-67
2023/08/15 07:21:45;;;;;;;2.70;2.55;;;25.40;99.90;;;;;;5071842;28;20621;-66
2023/08/15 07:24:13;;;;;;;3.15;2.95;;;25.50;99.90;;;;;;5072836;28;20221;-66
2023/08/15 07:26:40;;;;;;;2.47;2.38;;;25.50;99.90;;;;;;5072613;28;20193;-67
2023/08/15 07:29:08;;;;;;;3.00;2.75;;;25.50;99.90;;;;;;5072431;28;20201;-67
2023/08/15 07:31:35;;;;;;;3.40;2.78;;;25.60;99.90;;;;;;5071884;28;20575;-66
2023/08/15 07:34:02;;;;;;;3.35;3.13;;;25.60;99.90;;;;;;5070995;28;20204;-67
2023/08/15 07:36:29;;;;;;;3.90;3.28;;;25.70;99.90;;;;;;5069995;28;20220;-67
2023/08/15 07:38:57;;;;;;;6.75;4.00;;;25.80;99.90;;;;;;5072333;28;20737;-67
2023/08/15 07:41:25;;;;;;;5.47;3.78;;;25.90;99.90;;;;;;5046904;28;20190;-67
2023/08/15 07:43:52;;;;;;;5.70;3.90;;;26.00;99.90;;;;;;5072126;28;20243;-68
2023/08/15 07:46:19;;;;;;;5.68;3.55;;;26.10;99.90;;;;;;5053944;28;20298;-67
2023/08/15 07:48:46;;;;;;;7.97;7.03;;;26.20;99.90;;;;;;5071170;28;20197;-68
2023/08/15 07:51:16;;;;;;;7.53;6.18;;;26.30;99.90;;;;;;5050614;28;20201;-68
2023/08/15 07:53:43;;;;;;;7.63;6.15;;;26.40;99.90;;;;;;5072505;28;20186;-67
2023/08/15 07:56:12;;;;;;;4.65;4.32;;;26.40;99.90;;;;;;5071806;28;20672;-67
2023/08/15 07:58:44;;;;;;;3.53;3.33;;;26.50;99.90;;;;;;5072187;28;20201;-67
2023/08/15 08:01:11;;;;;;;4.50;4.10;;;26.60;99.90;;;;;;5053766;28;20561;-67
2023/08/15 08:03:42;;;;;;;4.10;3.80;;;26.60;99.90;;;;;;5068868;28;20302;-67
2023/08/15 08:06:09;;;;;;;4.18;3.88;;;26.70;99.90;;;;;;5052740;28;20733;-67
2023/08/15 08:08:36;;;;;;;3.40;3.20;;;26.90;99.90;;;;;;5054720;28;20204;-67
2023/08/15 08:11:03;;;;;;;3.15;2.95;;;26.90;99.90;;;;;;5072516;28;20228;-67
2023/08/15 08:13:32;;;;;;;8.63;4.40;;;27.00;99.90;;;;;;5073919;28;20595;-67
2023/08/15 08:16:01;;;;;;;4.40;4.00;;;27.10;99.90;;;;;;5054943;28;20217;-68
2023/08/15 08:18:31;;;;;;;10.75;8.18;;;27.20;99.90;;;;;;5053229;28;20213;-68
2023/08/15 08:20:58;;;;;;;10.48;6.40;;;27.20;99.90;;;;;;5069793;28;20201;-67
2023/08/15 08:23:25;;;;;;;5.93;5.43;;;27.30;99.90;;;;;;5071645;28;20209;-68
2023/08/15 08:25:52;;;;;;;5.15;4.70;;;27.30;99.90;;;;;;5070271;28;20198;-67
2023/08/15 08:28:19;;;;;;;4.80;4.40;;;27.30;99.90;;;;;;5071690;28;20201;-67
2023/08/15 08:30:47;;;;;;;5.20;4.60;;;27.30;99.90;;;;;;5070881;28;20250;-68
2023/08/15 08:33:18;;;;;;;6.03;4.72;;;27.30;99.90;;;;;;5069776;28;20280;-68
2023/08/15 08:35:57;;;;;;;4.30;4.00;;;27.30;99.90;;;;;;5068525;28;20217;-68
2023/08/15 08:38:26;;;;;;;4.30;3.97;;;27.40;99.90;;;;;;5071115;28;20193;-67
2023/08/15 08:40:57;;;;;;;4.25;3.95;;;27.50;99.90;;;;;;5070279;28;20228;-67
2023/08/15 08:43:25;;;;;;;4.15;3.70;;;27.50;99.90;;;;;;5071291;28;20185;-67
2023/08/15 08:45:58;;;;;;;3.30;3.10;;;27.60;99.90;;;;;;5071214;28;20198;-67
2023/08/15 08:48:26;;;;;;;12.60;4.95;;;27.60;99.90;;;;;;5070038;28;20193;-67
2023/08/15 08:50:56;;;;;;;13.63;6.00;;;27.60;99.90;;;;;;5051759;28;20197;-67
2023/08/15 08:53:27;;;;;;;16.67;6.40;;;27.70;99.90;;;;;;5071073;28;20193;-67
2023/08/15 08:55:58;;;;;;;16.05;5.47;;;27.80;99.90;;;;;;5053018;28;20260;-67
2023/08/15 08:58:37;;;;;;;12.57;6.25;;;27.80;99.90;;;;;;5052974;28;20205;-68
2023/08/15 09:01:04;;;;;;;6.28;4.63;;;28.10;99.90;;;;;;5069228;28;20560;-68
2023/08/15 09:03:33;;;;;;;5.68;4.43;;;28.10;99.90;;;;;;5069403;28;20233;-68
2023/08/15 09:06:00;;;;;;;5.72;5.22;;;28.20;99.90;;;;;;5051570;28;20196;-68
2023/08/15 09:08:28;;;;;;;5.68;5.18;;;28.30;99.90;;;;;;5068275;28;20227;-67
2023/08/15 09:10:55;;;;;;;5.93;4.82;;;28.40;99.90;;;;;;5070109;28;20254;-67
2023/08/15 09:13:23;;;;;;;8.07;5.65;;;28.40;99.90;;;;;;5052426;28;20216;-67
2023/08/15 09:15:51;;;;;;;6.88;5.93;;;28.50;99.90;;;;;;5070116;28;20692;-68
2023/08/15 09:18:23;;;;;;;6.57;5.32;;;28.60;99.90;;;;;;5070177;28;20233;-68
2023/08/15 09:20:52;;;;;;;5.85;5.28;;;28.60;99.90;;;;;;5069626;28;20189;-68
2023/08/15 09:23:19;;;;;;;11.23;9.77;;;28.70;99.90;;;;;;5066548;28;20216;-67
2023/08/15 09:25:48;;;;;;;7.38;6.75;;;28.70;99.90;;;;;;5070548;28;20259;-67
2023/08/15 09:28:15;;;;;;;6.40;5.70;;;28.80;99.90;;;;;;5070463;28;20236;-68
2023/08/15 09:30:52;;;;;;;6.43;5.82;;;28.90;99.90;;;;;;5070114;28;20665;-68
2023/08/15 09:33:19;;;;;;;6.05;5.50;;;29.00;99.90;;;;;;5065355;28;20616;-68
2023/08/15 09:35:46;;;;;;;5.30;4.80;;;29.00;99.90;;;;;;5066838;28;20209;-68
2023/08/15 09:38:16;;;;;;;4.75;4.43;;;29.20;99.90;;;;;;5070052;28;20243;-68
2023/08/15 09:40:44;;;;;;;4.32;4.03;;;29.30;99.90;;;;;;5069717;28;20185;-68
2023/08/15 09:43:15;;;;;;;6.20;4.88;;;29.30;99.90;;;;;;5070245;28;20189;-68
2023/08/15 09:45:43;;;;;;;7.47;5.47;;;29.40;99.90;;;;;;5070190;28;20194;-67
2023/08/15 09:48:11;;;;;;;4.60;4.20;;;29.50;99.90;;;;;;5068973;28;20600;-68
2023/08/15 09:50:41;;;;;;;4.80;4.40;;;29.60;99.90;;;;;;5065410;28;20192;-68
2023/08/15 09:53:09;;;;;;;7.22;4.55;;;29.70;99.70;;;;;;5069789;28;20201;-68
2023/08/15 09:55:40;;;;;;;3.90;3.70;;;29.80;99.40;;;;;;5065418;28;20577;-68
2023/08/15 09:58:08;;;;;;;4.03;3.83;;;29.80;99.20;;;;;;5064791;28;20190;-67
2023/08/15 10:00:38;;;;;;;5.18;4.78;;;29.90;99.00;;;;;;5070174;28;20185;-68
2023/08/15 10:03:15;;;;;;;3.88;3.60;;;30.00;98.20;;;;;;5067785;28;20193;-68
2023/08/15 10:05:46;;;;;;;3.90;3.60;;;30.10;97.10;;;;;;5066148;28;20189;-67
2023/08/15 10:08:14;;;;;;;5.03;3.42;;;30.20;94.60;;;;;;5069699;28;20212;-67
2023/08/15 10:10:43;;;;;;;3.28;3.03;;;30.30;92.70;;;;;;5070569;28;20192;-68
2023/08/15 10:13:11;;;;;;;3.60;3.30;;;30.30;91.50;;;;;;5070030;28;20285;-68
2023/08/15 10:15:39;;;;;;;7.38;2.95;;;30.50;91.50;;;;;;5052650;28;20218;-67
2023/08/15 10:18:09;;;;;;;4.50;2.92;;;30.60;91.30;;;;;;5050599;28;20299;-67
2023/08/15 10:20:37;;;;;;;10.32;3.60;;;30.70;90.40;;;;;;5051385;28;20196;-67
2023/08/15 10:23:07;;;;;;;8.88;3.28;;;30.80;86.50;;;;;;5070129;28;20201;-67
2023/08/15 10:25:36;;;;;;;4.28;2.95;;;30.80;82.90;;;;;;5051309;28;20203;-67
2023/08/15 10:28:12;;;;;;;6.03;3.20;;;30.90;81.10;;;;;;5051298;28;20217;-68
2023/08/15 10:30:41;;;;;;;4.78;3.03;;;31.10;79.90;;;;;;5051355;28;20202;-66
2023/08/15 10:33:14;;;;;;;3.15;2.80;;;31.10;78.70;;;;;;5067763;28;20364;-66
2023/08/15 10:36:06;;;;;;;5.63;3.10;;;31.10;79.00;;;;;;5068783;28;20197;-66
2023/08/15 10:38:36;;;;;;;4.50;3.08;;;31.20;78.10;;;;;;5055152;28;20206;-66
2023/08/15 10:41:06;;;;;;;3.80;2.80;;;31.30;78.30;;;;;;5052955;28;20216;-66
2023/08/15 10:43:36;;;;;;;2.67;2.47;;;31.30;77.80;;;;;;5069579;28;20201;-67
2023/08/15 10:46:05;;;;;;;2.85;2.40;;;31.40;76.90;;;;;;5069046;28;20189;-67
2023/08/15 10:48:43;;;;;;;4.20;3.17;;;31.50;75.40;;;;;;5052192;28;20193;-67
2023/08/15 10:51:21;;;;;;;3.88;2.92;;;31.60;72.40;;;;;;5064878;28;20217;-64
2023/08/15 10:53:49;;;;;;;2.20;2.10;;;31.60;70.40;;;;;;5055537;28;20276;-65
2023/08/15 10:56:18;;;;;;;8.65;3.42;;;31.70;71.00;;;;;;5070301;28;20549;-66
2023/08/15 10:58:47;;;;;;;5.03;2.92;;;31.80;70.30;;;;;;5069263;28;20553;-66
2023/08/15 11:01:18;;;;;;;3.92;2.72;;;31.80;70.10;;;;;;5069439;28;20185;-66
2023/08/15 11:03:47;;;;;;;5.43;2.90;;;31.90;69.80;;;;;;5066603;28;20247;-66
2023/08/15 11:06:14;;;;;;;9.43;3.03;;;31.90;69.00;;;;;;5068801;28;20285;-67
2023/08/15 11:08:42;;;;;;;2.97;2.60;;;32.00;68.60;;;;;;5049849;28;20687;-67
2023/08/15 11:11:10;;;;;;;4.03;3.00;;;32.00;68.90;;;;;;5051042;28;20193;-67
2023/08/15 11:13:38;;;;;;;3.13;2.92;;;32.10;68.70;;;;;;5069592;28;20197;-66
2023/08/15 11:16:07;;;;;;;4.47;2.78;;;32.10;68.50;;;;;;5068909;28;20217;-67
2023/08/15 11:18:35;;;;;;;2.72;2.63;;;32.10;68.30;;;;;;5068330;28;20196;-67
2023/08/15 11:21:02;;;;;;;5.95;3.33;;;32.10;68.20;;;;;;5068839;28;20204;-67
2023/08/15 11:23:31;;;;;;;7.40;3.35;;;32.20;68.00;;;;;;5051545;28;20213;-67
2023/08/15 11:26:03;;;;;;;3.08;2.78;;;32.20;68.10;;;;;;5070464;28;20193;-67
2023/08/15 11:28:30;;;;;;;3.50;3.05;;;32.30;67.90;;;;;;5068717;28;20730;-67
2023/08/15 11:30:58;;;;;;;2.70;2.60;;;32.30;67.50;;;;;;5070383;28;20258;-66
2023/08/15 11:33:32;;;;;;;2.95;2.70;;;32.40;67.30;;;;;;5069165;28;20684;-67
2023/08/15 11:36:00;;;;;;;6.00;3.00;;;32.40;66.80;;;;;;5068129;28;20205;-66
2023/08/15 11:38:29;;;;;;;5.70;3.10;;;32.40;66.10;;;;;;5069102;28;20201;-66
2023/08/15 11:40:57;;;;;;;3.90;3.50;;;32.50;66.30;;;;;;5067937;28;20293;-65
2023/08/15 11:43:26;;;;;;;4.65;2.97;;;32.50;66.10;;;;;;5067790;28;20239;-66
2023/08/15 11:45:53;;;;;;;6.25;2.60;;;32.60;65.60;;;;;;5068398;28;20229;-66
2023/08/15 11:48:20;;;;;;;4.13;3.13;;;32.60;64.90;;;;;;5067326;28;20213;-66
2023/08/15 11:50:50;;;;;;;3.97;3.10;;;32.70;64.20;;;;;;5056582;28;20198;-66
2023/08/15 11:53:18;;;;;;;2.67;2.50;;;32.80;63.90;;;;;;5067956;28;20200;-66
2023/08/15 11:55:47;;;;;;;4.20;3.03;;;32.80;63.10;;;;;;5039386;28;20267;-65
2023/08/15 11:58:26;;;;;;;6.25;3.30;;;32.90;62.20;;;;;;5050011;28;20206;-66
2023/08/15 12:00:55;;;;;;;4.10;2.88;;;32.90;60.60;;;;;;5068545;28;20661;-66
2023/08/15 12:03:24;;;;;;;6.63;2.78;;;32.90;60.00;;;;;;5048502;28;20308;-66
2023/08/15 12:05:55;;;;;;;9.02;2.65;;;33.00;60.10;;;;;;5068439;28;20201;-66
2023/08/15 12:08:24;;;;;;;5.13;2.65;;;33.00;60.70;;;;;;5067365;28;20723;-66
2023/08/15 12:10:55;;;;;;;2.72;2.53;;;33.00;60.10;;;;;;5068628;28;20255;-66
2023/08/15 12:13:32;;;;;;;2.70;2.50;;;33.10;60.50;;;;;;5068576;28;20201;-65
2023/08/15 12:16:01;;;;;;;7.20;2.97;;;33.10;60.50;;;;;;5049863;28;20209;-65
2023/08/15 12:18:28;;;;;;;5.43;3.05;;;33.20;59.90;;;;;;5067404;28;20209;-66
2023/08/15 12:20:57;;;;;;;3.83;2.97;;;33.20;59.70;;;;;;5066113;28;20318;-67
2023/08/15 12:23:25;;;;;;;4.35;2.70;;;33.20;59.80;;;;;;5049680;28;20196;-67
2023/08/15 12:25:52;;;;;;;12.80;3.40;;;33.20;59.00;;;;;;5067898;28;20193;-67
2023/08/15 12:28:19;;;;;;;2.60;2.40;;;33.20;59.20;;;;;;5068748;28;20193;-67
2023/08/15 12:30:49;;;;;;;3.60;3.38;;;33.30;59.60;;;;;;5067605;28;20193;-67
2023/08/15 12:33:16;;;;;;;7.40;4.57;;;33.30;59.50;;;;;;5065742;28;20197;-67
2023/08/15 12:35:44;;;;;;;4.28;3.97;;;33.40;59.50;;;;;;5065129;28;20232;-66
2023/08/15 12:38:12;;;;;;;4.32;3.97;;;33.40;59.10;;;;;;5067266;28;20712;-66
2023/08/15 12:40:40;;;;;;;4.15;3.75;;;33.40;59.10;;;;;;5059683;28;20227;-66
2023/08/15 12:43:09;;;;;;;4.80;3.55;;;33.40;59.10;;;;;;5066363;28;20777;-66
2023/08/15 12:45:36;;;;;;;3.88;3.50;;;33.50;59.20;;;;;;5051958;28;20197;-66
2023/08/15 12:48:04;;;;;;;6.35;3.35;;;33.40;59.10;;;;;;5068935;28;20200;-66
2023/08/15 12:50:31;;;;;;;4.38;3.28;;;33.50;58.90;;;;;;5061794;28;20693;-65
2023/08/15 12:52:58;;;;;;;4.40;3.28;;;33.50;59.10;;;;;;5052073;28;20201;-66